My Meet Scores
Ellie Hansen, Aspire Gymnastics Academy - MyMeetScores.com
Top100 | Top Teams | Upcoming Meets | Completed Meets | Latest | Add Scores | Help| Support | Bookmark and Share

Ellie Hansen, Aspire Gymnastics Academy
Personal Bests
LevelVault BarsBeamFloorAA
39.3759.250 9.1759.07536.525
49.2259.525 9.4259.27536.925
59.1009.175 9.4259.07536.250
Meet Scores
Date Meet Team Session Level Division Vault Bars Beam Floor AA
2020-02-21 Great Western Invitational - Women's Aspire Gymnastics Academy 02 5 Pony 8.925 10 9.175 5 9.025 6 9.000 5T 36.125 4T
2020-02-14 Big Classic Aspire Gymnastics Academy 1A 5 Junior C 9.050 35T 9.150 26T 9.275 12T 8.700 52T 36.175 26
2020-01-24 Uga Invitational Aspire Gymnastics Academy B1 5 Jr B 9.000 6T 9.050 2T 9.425 1 8.775 9 36.250 3
2020-01-17 2020 Bravo Classic Aspire Gymnastics Academy 4A 5 Sr 9.100 17T 9.025 8 8.525 18 8.550 20 35.200 17
2019-12-20 Aspire Classic - 2019 Aspire Gymnastics Academy 3A 5 Older 9.050 14 8.875 9 9.100 12 8.175 19 35.200 13T
2019-12-13 2019 St Nick Aspire Gymnastics Academy 7A 5 SrB 8.850 4 9.125 1 8.500 8 9.075 3 35.550 2
2019-03-22 Illinois Gymnastics State Championships Aspire Gymnastics Academy 10 4 Sr A 8.900 9T 9.450 5T 9.300 9T 9.275 4 36.925 5
2019-03-08 Lucky Invite Aspire Gymnastics Academy A09 4 Sr 8.700 7 9.525 7 9.400 5 9.200 4 36.825 7
2019-02-23 Kinetic Classic 2019 Aspire Gymnastics Academy 1 4 Older 8.375 31T 9.325 3T 8.975 18 8.575 28 35.250 22
2019-02-15 Big ClassicBIG CLASSIC Aspire Gymnastics Academy 5A 4 Child D 8.900 3 9.050 3T 9.300 3 8.975 4 36.225 3
2019-01-25 UGA Invitational Aspire Gymnastics Academy B06 4 Jr B 8.600 4 9.250 1 9.350 2 8.950 3 36.150 2
2019-01-18 2019 Bravo Classic Aspire Gymnastics Academy 3B 4 Sr 9.225 4 8.500 13 9.200 5 8.825 5T 35.750 4
2018-12-14 2018 Aspire Classic Aspire Gymnastics Academy 5A 4 Older 9.050 6T 9.300 1 9.050 12T 9.000 10T 36.400 4
2018-12-07 St. Nick Invite 2018 Aspire Gymnastics Academy 6A 4 SrB 8.950 3 8.850 6T 8.850 7 9.100 3T 35.750 4
2018-11-17 Paul Hamm Thanksgiving Class WOMENS Aspire Gymnastics Academy 6 4 Older 9.150 4 9.200 6 9.200 2 9.200 6T 36.750 2
2018-03-08 Level 4 & 5 State Aspire Gymnastics Academy All 4 Jr A 8.150 26 8.925 13T 9.425 9T 8.700 24T 35.200 20
2018-02-16 Big Classic Aspire Gymnastics Academy 2B 4 Child C 7.950 13 9.250 6T 9.350 5 8.650 13 35.200 10
2018-01-26 2018 UGA Classic Aspire Gymnastics Academy B2 4 Sr A 8.000 13 8.525 10 9.000 12 8.500 15 34.025 12
2018-01-19 2018 Bravo Classic Aspire Gymnastics Academy 11B 4 Jr 7.900 17 8.500 15T 9.300 3 8.775 15T 34.475 15
2017-12-15 2017 Aspire Classic Aspire Gymnastics Academy 3 4 Sr A 8.050 22 8.650 15 8.875 13 8.275 22 33.850 19
2017-12-08 St. Nick Invite Aspire Gymnastics Academy 7A 4 JrB 8.700 13T 8.575 10 9.000 12 8.675 14 34.950 13
2017-11-16 Paul Hamm Thanksgiving Classic - Women Aspire Gymnastics Academy 7 4 Middle 7.800 29 8.800 19 9.075 17T 8.325 26 34.000 23
2017-03-30 2017 Illinois Level 3 & 5 State Aspire Gymnastics Academy All 3 Jr C 9.250 24T 9.250 15T 9.175 10 8.850 22 36.525 16T
2017-02-24 Kinetic Classic Aspire Gymnastics Academy 4,5,6,7 3 All Ages 9.375 16 9.000 52T 8.475 77T 9.075 37T 35.925 48T
2017-02-18 2017 Great Western Invitational Women's Aspire Gymnastics Academy 1 3 CowGirl 9.025 13 8.650 15 8.650 11 9.075 13 35.400 13
2017-01-27 2017 UGA Invitational Aspire Gymnastics Academy B6 3 Sr A 8.400 14 8.900 11 8.050 16T 8.750 13 34.100 13
2017-01-20 2017 Bravo Classic Aspire Gymnastics Academy 11B 3 9+yrs 8.900 25 8.250 26T 8.400 24 8.700 21 34.250 26
2016-12-16 2016 Aspire Classic Aspire Gymnastics Academy 12 3 Older 8.800 17 8.350 17T 8.600 12T 9.050 11 34.800 16
2016-12-09 St. Nick Invite Aspire Gymnastics Academy 6 3 All 8.925 25 8.875 11 8.500 20T 7.700 31 34.000 26T
2016-11-19 Paul Hamm Thanksgiving Classic - 2016 Girls Aspire Gymnastics Academy 5 3 9+yrs 8.300 19T 8.600 14T 8.600 12T 7.950 27 33.450 20
Get your scores on
a t-shirt, pin, or hoodie

www.lazysuits.com